sensor_id;sensor_type;location;lat;lon;timestamp;P1;durP1;ratioP1;P2;durP2;ratioP2
11839;SDS011;5979;50.800;4.904;2023-08-30T00:01:49;9.93;;;8.98;;
11839;SDS011;5979;50.800;4.904;2023-08-30T00:04:15;9.93;;;9.00;;
11839;SDS011;5979;50.800;4.904;2023-08-30T00:06:41;9.30;;;8.23;;
11839;SDS011;5979;50.800;4.904;2023-08-30T00:09:06;10.48;;;8.77;;
11839;SDS011;5979;50.800;4.904;2023-08-30T00:11:32;10.85;;;9.75;;
11839;SDS011;5979;50.800;4.904;2023-08-30T00:14:04;10.25;;;9.35;;
11839;SDS011;5979;50.800;4.904;2023-08-30T00:16:34;10.43;;;9.43;;
11839;SDS011;5979;50.800;4.904;2023-08-30T00:19:00;10.50;;;9.43;;
11839;SDS011;5979;50.800;4.904;2023-08-30T00:21:26;10.23;;;8.98;;
11839;SDS011;5979;50.800;4.904;2023-08-30T00:23:52;10.90;;;9.90;;
11839;SDS011;5979;50.800;4.904;2023-08-30T00:26:18;10.93;;;10.00;;
11839;SDS011;5979;50.800;4.904;2023-08-30T00:28:43;11.40;;;9.20;;
11839;SDS011;5979;50.800;4.904;2023-08-30T00:31:09;11.15;;;9.98;;
11839;SDS011;5979;50.800;4.904;2023-08-30T00:33:35;9.82;;;8.82;;
11839;SDS011;5979;50.800;4.904;2023-08-30T00:36:00;10.77;;;9.88;;
11839;SDS011;5979;50.800;4.904;2023-08-30T00:38:26;10.90;;;9.90;;
11839;SDS011;5979;50.800;4.904;2023-08-30T00:40:52;10.70;;;9.77;;
11839;SDS011;5979;50.800;4.904;2023-08-30T00:43:19;11.13;;;10.13;;
11839;SDS011;5979;50.800;4.904;2023-08-30T00:45:45;12.07;;;10.35;;
11839;SDS011;5979;50.800;4.904;2023-08-30T00:48:12;10.23;;;9.30;;
11839;SDS011;5979;50.800;4.904;2023-08-30T00:50:40;10.20;;;9.30;;
11839;SDS011;5979;50.800;4.904;2023-08-30T00:53:07;10.40;;;9.02;;
11839;SDS011;5979;50.800;4.904;2023-08-30T00:55:35;10.05;;;9.13;;
11839;SDS011;5979;50.800;4.904;2023-08-30T00:58:02;10.55;;;9.55;;
11839;SDS011;5979;50.800;4.904;2023-08-30T01:00:31;9.27;;;8.48;;
11839;SDS011;5979;50.800;4.904;2023-08-30T01:02:58;9.38;;;8.48;;
11839;SDS011;5979;50.800;4.904;2023-08-30T01:05:24;9.13;;;8.40;;
11839;SDS011;5979;50.800;4.904;2023-08-30T01:07:50;9.85;;;8.95;;
11839;SDS011;5979;50.800;4.904;2023-08-30T01:10:17;9.63;;;8.70;;
11839;SDS011;5979;50.800;4.904;2023-08-30T01:12:45;9.88;;;8.88;;
11839;SDS011;5979;50.800;4.904;2023-08-30T01:15:20;10.27;;;9.38;;
11839;SDS011;5979;50.800;4.904;2023-08-30T01:17:48;9.70;;;8.80;;
11839;SDS011;5979;50.800;4.904;2023-08-30T01:20:16;9.88;;;9.02;;
11839;SDS011;5979;50.800;4.904;2023-08-30T01:27:57;9.07;;;8.32;;
11839;SDS011;5979;50.800;4.904;2023-08-30T01:30:26;9.95;;;9.05;;
11839;SDS011;5979;50.800;4.904;2023-08-30T01:32:53;10.93;;;9.60;;
11839;SDS011;5979;50.800;4.904;2023-08-30T01:35:20;10.40;;;9.43;;
11839;SDS011;5979;50.800;4.904;2023-08-30T01:37:48;10.68;;;9.38;;
11839;SDS011;5979;50.800;4.904;2023-08-30T01:40:15;11.20;;;10.18;;
11839;SDS011;5979;50.800;4.904;2023-08-30T01:42:43;11.27;;;10.13;;
11839;SDS011;5979;50.800;4.904;2023-08-30T01:45:11;11.43;;;9.80;;
11839;SDS011;5979;50.800;4.904;2023-08-30T01:47:39;9.75;;;8.85;;
11839;SDS011;5979;50.800;4.904;2023-08-30T01:50:07;10.73;;;9.25;;
11839;SDS011;5979;50.800;4.904;2023-08-30T01:52:34;11.98;;;10.70;;
11839;SDS011;5979;50.800;4.904;2023-08-30T01:55:01;9.55;;;8.75;;
11839;SDS011;5979;50.800;4.904;2023-08-30T01:57:28;12.52;;;11.07;;
11839;SDS011;5979;50.800;4.904;2023-08-30T01:59:54;10.95;;;10.02;;
11839;SDS011;5979;50.800;4.904;2023-08-30T02:02:19;11.10;;;10.07;;
11839;SDS011;5979;50.800;4.904;2023-08-30T02:04:45;12.05;;;11.02;;
11839;SDS011;5979;50.800;4.904;2023-08-30T02:07:13;11.13;;;10.10;;
11839;SDS011;5979;50.800;4.904;2023-08-30T02:12:20;11.82;;;10.65;;
11839;SDS011;5979;50.800;4.904;2023-08-30T02:14:49;11.63;;;10.57;;
11839;SDS011;5979;50.800;4.904;2023-08-30T02:17:15;11.00;;;9.98;;
11839;SDS011;5979;50.800;4.904;2023-08-30T02:19:43;10.63;;;9.57;;
11839;SDS011;5979;50.800;4.904;2023-08-30T02:22:09;11.23;;;10.18;;
11839;SDS011;5979;50.800;4.904;2023-08-30T02:24:35;10.98;;;10.05;;
11839;SDS011;5979;50.800;4.904;2023-08-30T02:27:00;13.30;;;11.90;;
11839;SDS011;5979;50.800;4.904;2023-08-30T02:29:26;11.15;;;9.98;;
11839;SDS011;5979;50.800;4.904;2023-08-30T02:31:52;13.10;;;11.82;;
11839;SDS011;5979;50.800;4.904;2023-08-30T02:34:17;12.40;;;11.32;;
11839;SDS011;5979;50.800;4.904;2023-08-30T02:36:43;12.68;;;11.32;;
11839;SDS011;5979;50.800;4.904;2023-08-30T02:39:08;12.32;;;11.18;;
11839;SDS011;5979;50.800;4.904;2023-08-30T02:41:35;13.10;;;11.80;;
11839;SDS011;5979;50.800;4.904;2023-08-30T02:44:01;12.38;;;11.18;;
11839;SDS011;5979;50.800;4.904;2023-08-30T02:46:27;12.52;;;11.43;;
11839;SDS011;5979;50.800;4.904;2023-08-30T02:48:52;14.02;;;11.32;;
11839;SDS011;5979;50.800;4.904;2023-08-30T02:51:18;11.60;;;10.55;;
11839;SDS011;5979;50.800;4.904;2023-08-30T02:53:44;12.38;;;11.18;;
11839;SDS011;5979;50.800;4.904;2023-08-30T02:56:09;12.90;;;10.65;;
11839;SDS011;5979;50.800;4.904;2023-08-30T02:58:36;11.82;;;10.73;;
11839;SDS011;5979;50.800;4.904;2023-08-30T03:01:02;13.18;;;11.88;;
11839;SDS011;5979;50.800;4.904;2023-08-30T03:03:27;11.10;;;9.98;;
11839;SDS011;5979;50.800;4.904;2023-08-30T03:05:53;11.48;;;10.48;;
11839;SDS011;5979;50.800;4.904;2023-08-30T03:08:19;12.38;;;11.00;;
11839;SDS011;5979;50.800;4.904;2023-08-30T03:10:44;9.85;;;8.90;;
11839;SDS011;5979;50.800;4.904;2023-08-30T03:13:10;12.27;;;10.13;;
11839;SDS011;5979;50.800;4.904;2023-08-30T03:15:36;12.65;;;11.25;;
11839;SDS011;5979;50.800;4.904;2023-08-30T03:18:01;13.93;;;12.55;;
11839;SDS011;5979;50.800;4.904;2023-08-30T03:20:27;11.18;;;9.90;;
11839;SDS011;5979;50.800;4.904;2023-08-30T03:22:56;13.25;;;11.95;;
11839;SDS011;5979;50.800;4.904;2023-08-30T03:25:23;12.07;;;10.98;;
11839;SDS011;5979;50.800;4.904;2023-08-30T03:27:48;14.73;;;12.80;;
11839;SDS011;5979;50.800;4.904;2023-08-30T03:30:14;13.13;;;11.82;;
11839;SDS011;5979;50.800;4.904;2023-08-30T03:32:40;11.43;;;10.27;;
11839;SDS011;5979;50.800;4.904;2023-08-30T03:35:06;11.90;;;10.73;;
11839;SDS011;5979;50.800;4.904;2023-08-30T03:37:32;12.75;;;11.55;;
11839;SDS011;5979;50.800;4.904;2023-08-30T03:39:57;14.13;;;12.63;;
11839;SDS011;5979;50.800;4.904;2023-08-30T03:42:23;12.57;;;11.38;;
11839;SDS011;5979;50.800;4.904;2023-08-30T03:44:49;13.63;;;11.57;;
11839;SDS011;5979;50.800;4.904;2023-08-30T03:47:14;13.52;;;11.85;;
11839;SDS011;5979;50.800;4.904;2023-08-30T03:49:40;12.32;;;11.23;;
11839;SDS011;5979;50.800;4.904;2023-08-30T03:52:06;13.38;;;12.10;;
11839;SDS011;5979;50.800;4.904;2023-08-30T03:54:31;12.13;;;10.93;;
11839;SDS011;5979;50.800;4.904;2023-08-30T03:56:57;14.40;;;10.80;;
11839;SDS011;5979;50.800;4.904;2023-08-30T03:59:23;11.88;;;10.82;;
11839;SDS011;5979;50.800;4.904;2023-08-30T04:01:50;11.52;;;10.48;;
11839;SDS011;5979;50.800;4.904;2023-08-30T04:04:16;13.20;;;11.90;;
11839;SDS011;5979;50.800;4.904;2023-08-30T04:06:42;12.80;;;10.77;;
11839;SDS011;5979;50.800;4.904;2023-08-30T04:09:07;12.18;;;10.93;;
11839;SDS011;5979;50.800;4.904;2023-08-30T04:11:33;12.07;;;10.93;;
11839;SDS011;5979;50.800;4.904;2023-08-30T04:13:59;12.25;;;11.05;;
11839;SDS011;5979;50.800;4.904;2023-08-30T04:16:24;14.15;;;11.25;;
11839;SDS011;5979;50.800;4.904;2023-08-30T04:18:50;11.80;;;10.63;;
11839;SDS011;5979;50.800;4.904;2023-08-30T04:21:16;10.50;;;9.35;;
11839;SDS011;5979;50.800;4.904;2023-08-30T04:23:41;10.68;;;9.68;;
11839;SDS011;5979;50.800;4.904;2023-08-30T04:26:07;11.48;;;10.27;;
11839;SDS011;5979;50.800;4.904;2023-08-30T04:28:33;9.65;;;8.77;;
11839;SDS011;5979;50.800;4.904;2023-08-30T04:30:58;11.50;;;10.40;;
11839;SDS011;5979;50.800;4.904;2023-08-30T04:33:24;11.50;;;10.30;;
11839;SDS011;5979;50.800;4.904;2023-08-30T04:35:51;10.35;;;9.30;;
11839;SDS011;5979;50.800;4.904;2023-08-30T04:38:17;10.70;;;9.70;;
11839;SDS011;5979;50.800;4.904;2023-08-30T04:40:44;11.10;;;9.23;;
11839;SDS011;5979;50.800;4.904;2023-08-30T04:43:10;10.70;;;9.63;;
11839;SDS011;5979;50.800;4.904;2023-08-30T04:45:36;10.65;;;9.65;;
11839;SDS011;5979;50.800;4.904;2023-08-30T04:48:01;10.55;;;9.52;;
11839;SDS011;5979;50.800;4.904;2023-08-30T04:50:27;11.02;;;9.85;;
11839;SDS011;5979;50.800;4.904;2023-08-30T04:52:53;10.25;;;9.20;;
11839;SDS011;5979;50.800;4.904;2023-08-30T04:55:18;10.65;;;9.65;;
11839;SDS011;5979;50.800;4.904;2023-08-30T04:57:44;10.20;;;9.40;;
11839;SDS011;5979;50.800;4.904;2023-08-30T05:00:11;12.63;;;9.07;;
11839;SDS011;5979;50.800;4.904;2023-08-30T05:02:37;10.80;;;9.70;;
11839;SDS011;5979;50.800;4.904;2023-08-30T05:05:03;12.55;;;9.27;;
11839;SDS011;5979;50.800;4.904;2023-08-30T05:07:29;11.27;;;9.27;;
11839;SDS011;5979;50.800;4.904;2023-08-30T05:09:57;9.93;;;9.02;;
11839;SDS011;5979;50.800;4.904;2023-08-30T05:12:23;9.75;;;8.85;;
11839;SDS011;5979;50.800;4.904;2023-08-30T05:14:49;9.85;;;8.95;;
11839;SDS011;5979;50.800;4.904;2023-08-30T05:17:14;9.63;;;8.73;;
11839;SDS011;5979;50.800;4.904;2023-08-30T05:19:40;11.77;;;8.82;;
11839;SDS011;5979;50.800;4.904;2023-08-30T05:22:05;9.52;;;8.68;;
11839;SDS011;5979;50.800;4.904;2023-08-30T05:24:31;9.30;;;8.45;;
11839;SDS011;5979;50.800;4.904;2023-08-30T05:26:57;8.38;;;7.60;;
11839;SDS011;5979;50.800;4.904;2023-08-30T05:29:22;9.20;;;8.30;;
11839;SDS011;5979;50.800;4.904;2023-08-30T05:31:48;8.38;;;7.57;;
11839;SDS011;5979;50.800;4.904;2023-08-30T05:34:14;9.38;;;8.48;;
11839;SDS011;5979;50.800;4.904;2023-08-30T05:36:39;8.82;;;7.75;;
11839;SDS011;5979;50.800;4.904;2023-08-30T05:39:05;8.30;;;7.50;;
11839;SDS011;5979;50.800;4.904;2023-08-30T05:41:31;10.60;;;7.68;;
11839;SDS011;5979;50.800;4.904;2023-08-30T05:43:57;9.10;;;6.85;;
11839;SDS011;5979;50.800;4.904;2023-08-30T05:46:22;7.32;;;6.63;;
11839;SDS011;5979;50.800;4.904;2023-08-30T05:48:48;7.38;;;6.38;;
11839;SDS011;5979;50.800;4.904;2023-08-30T05:51:14;6.15;;;5.60;;
11839;SDS011;5979;50.800;4.904;2023-08-30T05:53:40;5.45;;;4.68;;
11839;SDS011;5979;50.800;4.904;2023-08-30T05:56:05;4.43;;;4.13;;
11839;SDS011;5979;50.800;4.904;2023-08-30T05:58:31;4.85;;;4.32;;
11839;SDS011;5979;50.800;4.904;2023-08-30T06:00:58;4.57;;;4.18;;
11839;SDS011;5979;50.800;4.904;2023-08-30T06:03:25;5.90;;;4.55;;
11839;SDS011;5979;50.800;4.904;2023-08-30T06:05:51;4.88;;;4.47;;
11839;SDS011;5979;50.800;4.904;2023-08-30T06:08:16;4.65;;;4.25;;
11839;SDS011;5979;50.800;4.904;2023-08-30T06:10:43;5.78;;;4.88;;
11839;SDS011;5979;50.800;4.904;2023-08-30T06:13:08;4.75;;;4.35;;
11839;SDS011;5979;50.800;4.904;2023-08-30T06:15:35;7.10;;;4.68;;
11839;SDS011;5979;50.800;4.904;2023-08-30T06:18:02;6.55;;;4.72;;
11839;SDS011;5979;50.800;4.904;2023-08-30T06:20:28;4.47;;;3.97;;
11839;SDS011;5979;50.800;4.904;2023-08-30T06:22:54;4.63;;;4.22;;
11839;SDS011;5979;50.800;4.904;2023-08-30T06:25:20;5.40;;;4.28;;
11839;SDS011;5979;50.800;4.904;2023-08-30T06:27:55;4.88;;;4.47;;
11839;SDS011;5979;50.800;4.904;2023-08-30T06:30:27;4.47;;;4.07;;
11839;SDS011;5979;50.800;4.904;2023-08-30T06:32:54;4.45;;;4.15;;
11839;SDS011;5979;50.800;4.904;2023-08-30T06:35:20;3.95;;;3.53;;
11839;SDS011;5979;50.800;4.904;2023-08-30T06:37:46;4.68;;;4.28;;
11839;SDS011;5979;50.800;4.904;2023-08-30T06:40:12;4.00;;;3.70;;
11839;SDS011;5979;50.800;4.904;2023-08-30T06:42:37;4.18;;;3.78;;
11839;SDS011;5979;50.800;4.904;2023-08-30T06:45:03;3.67;;;3.35;;
11839;SDS011;5979;50.800;4.904;2023-08-30T06:47:29;3.60;;;3.30;;
11839;SDS011;5979;50.800;4.904;2023-08-30T06:49:55;3.40;;;3.10;;
11839;SDS011;5979;50.800;4.904;2023-08-30T06:52:21;6.88;;;4.28;;
11839;SDS011;5979;50.800;4.904;2023-08-30T06:54:47;3.28;;;3.08;;
11839;SDS011;5979;50.800;4.904;2023-08-30T06:57:13;3.47;;;3.25;;
11839;SDS011;5979;50.800;4.904;2023-08-30T06:59:39;3.85;;;3.35;;
11839;SDS011;5979;50.800;4.904;2023-08-30T07:02:04;6.68;;;3.17;;
11839;SDS011;5979;50.800;4.904;2023-08-30T07:04:31;3.70;;;3.40;;
11839;SDS011;5979;50.800;4.904;2023-08-30T07:06:56;3.13;;;2.92;;
11839;SDS011;5979;50.800;4.904;2023-08-30T07:09:22;3.60;;;3.40;;
11839;SDS011;5979;50.800;4.904;2023-08-30T07:11:53;3.40;;;3.10;;
11839;SDS011;5979;50.800;4.904;2023-08-30T07:14:21;3.88;;;3.03;;
11839;SDS011;5979;50.800;4.904;2023-08-30T07:16:47;3.70;;;3.35;;
11839;SDS011;5979;50.800;4.904;2023-08-30T07:19:14;3.35;;;3.05;;
11839;SDS011;5979;50.800;4.904;2023-08-30T07:21:41;3.72;;;3.20;;
11839;SDS011;5979;50.800;4.904;2023-08-30T07:24:07;3.83;;;3.28;;
11839;SDS011;5979;50.800;4.904;2023-08-30T07:26:33;4.07;;;3.75;;
11839;SDS011;5979;50.800;4.904;2023-08-30T07:28:58;4.10;;;3.60;;
11839;SDS011;5979;50.800;4.904;2023-08-30T07:31:24;4.35;;;3.92;;
11839;SDS011;5979;50.800;4.904;2023-08-30T07:33:50;3.72;;;3.42;;
11839;SDS011;5979;50.800;4.904;2023-08-30T07:36:15;4.75;;;3.72;;
11839;SDS011;5979;50.800;4.904;2023-08-30T07:38:41;3.92;;;3.55;;
11839;SDS011;5979;50.800;4.904;2023-08-30T07:41:07;4.00;;;3.70;;
11839;SDS011;5979;50.800;4.904;2023-08-30T07:43:32;4.22;;;3.92;;
11839;SDS011;5979;50.800;4.904;2023-08-30T07:45:58;5.10;;;4.70;;
11839;SDS011;5979;50.800;4.904;2023-08-30T07:48:24;4.13;;;3.75;;
11839;SDS011;5979;50.800;4.904;2023-08-30T07:50:50;4.25;;;3.95;;
11839;SDS011;5979;50.800;4.904;2023-08-30T07:53:16;6.03;;;4.10;;
11839;SDS011;5979;50.800;4.904;2023-08-30T07:55:41;4.65;;;4.18;;
11839;SDS011;5979;50.800;4.904;2023-08-30T07:58:07;4.85;;;4.45;;
11839;SDS011;5979;50.800;4.904;2023-08-30T08:00:35;5.88;;;4.25;;
11839;SDS011;5979;50.800;4.904;2023-08-30T08:03:01;4.75;;;4.32;;
11839;SDS011;5979;50.800;4.904;2023-08-30T08:05:27;5.22;;;4.80;;
11839;SDS011;5979;50.800;4.904;2023-08-30T08:07:53;4.90;;;4.50;;
11839;SDS011;5979;50.800;4.904;2023-08-30T08:10:19;5.00;;;4.63;;
11839;SDS011;5979;50.800;4.904;2023-08-30T08:12:45;5.55;;;4.75;;
11839;SDS011;5979;50.800;4.904;2023-08-30T08:15:11;5.00;;;4.32;;
11839;SDS011;5979;50.800;4.904;2023-08-30T08:17:36;5.35;;;4.80;;
11839;SDS011;5979;50.800;4.904;2023-08-30T08:20:03;5.95;;;4.85;;
11839;SDS011;5979;50.800;4.904;2023-08-30T08:22:30;5.50;;;4.47;;
11839;SDS011;5979;50.800;4.904;2023-08-30T08:24:56;5.55;;;4.60;;
11839;SDS011;5979;50.800;4.904;2023-08-30T08:27:22;4.78;;;4.38;;
11839;SDS011;5979;50.800;4.904;2023-08-30T08:29:50;4.25;;;3.92;;
11839;SDS011;5979;50.800;4.904;2023-08-30T08:32:15;4.55;;;4.15;;
11839;SDS011;5979;50.800;4.904;2023-08-30T08:34:41;4.47;;;4.18;;
11839;SDS011;5979;50.800;4.904;2023-08-30T08:37:07;4.05;;;3.75;;
11839;SDS011;5979;50.800;4.904;2023-08-30T08:39:32;3.70;;;3.40;;
11839;SDS011;5979;50.800;4.904;2023-08-30T08:41:59;4.05;;;3.75;;
11839;SDS011;5979;50.800;4.904;2023-08-30T08:44:26;4.90;;;4.05;;
11839;SDS011;5979;50.800;4.904;2023-08-30T08:46:56;4.13;;;3.92;;
11839;SDS011;5979;50.800;4.904;2023-08-30T08:49:24;3.85;;;3.55;;
11839;SDS011;5979;50.800;4.904;2023-08-30T08:51:53;3.97;;;3.67;;
11839;SDS011;5979;50.800;4.904;2023-08-30T08:54:19;3.83;;;3.53;;
11839;SDS011;5979;50.800;4.904;2023-08-30T08:56:45;3.95;;;3.67;;
11839;SDS011;5979;50.800;4.904;2023-08-30T08:59:12;4.45;;;4.13;;
11839;SDS011;5979;50.800;4.904;2023-08-30T09:01:41;4.15;;;3.78;;
11839;SDS011;5979;50.800;4.904;2023-08-30T09:04:07;4.60;;;4.18;;
11839;SDS011;5979;50.800;4.904;2023-08-30T09:06:35;4.15;;;3.85;;
11839;SDS011;5979;50.800;4.904;2023-08-30T09:09:02;3.85;;;2.90;;
11839;SDS011;5979;50.800;4.904;2023-08-30T09:11:31;3.25;;;3.00;;
11839;SDS011;5979;50.800;4.904;2023-08-30T09:13:57;3.90;;;2.83;;
11839;SDS011;5979;50.800;4.904;2023-08-30T09:16:23;3.53;;;3.33;;
11839;SDS011;5979;50.800;4.904;2023-08-30T09:19:02;3.10;;;2.75;;
11839;SDS011;5979;50.800;4.904;2023-08-30T09:21:29;2.78;;;2.67;;
11839;SDS011;5979;50.800;4.904;2023-08-30T09:24:03;2.72;;;2.53;;
11839;SDS011;5979;50.800;4.904;2023-08-30T09:26:30;4.20;;;2.88;;
11839;SDS011;5979;50.800;4.904;2023-08-30T09:29:03;2.55;;;2.40;;
11839;SDS011;5979;50.800;4.904;2023-08-30T09:31:36;3.13;;;2.92;;
11839;SDS011;5979;50.800;4.904;2023-08-30T09:34:03;2.92;;;2.72;;
11839;SDS011;5979;50.800;4.904;2023-08-30T09:36:47;2.70;;;2.50;;
11839;SDS011;5979;50.800;4.904;2023-08-30T09:39:15;3.10;;;2.80;;
11839;SDS011;5979;50.800;4.904;2023-08-30T09:41:47;2.85;;;2.60;;
11839;SDS011;5979;50.800;4.904;2023-08-30T09:44:18;2.40;;;2.20;;
11839;SDS011;5979;50.800;4.904;2023-08-30T09:46:46;2.30;;;2.20;;
11839;SDS011;5979;50.800;4.904;2023-08-30T09:49:15;2.00;;;1.90;;
11839;SDS011;5979;50.800;4.904;2023-08-30T09:51:42;2.67;;;2.53;;
11839;SDS011;5979;50.800;4.904;2023-08-30T09:54:18;2.53;;;2.15;;
11839;SDS011;5979;50.800;4.904;2023-08-30T09:56:45;2.30;;;2.10;;
11839;SDS011;5979;50.800;4.904;2023-08-30T09:59:12;2.40;;;2.30;;
11839;SDS011;5979;50.800;4.904;2023-08-30T10:01:40;2.20;;;2.10;;
11839;SDS011;5979;50.800;4.904;2023-08-30T10:04:07;3.80;;;1.75;;
11839;SDS011;5979;50.800;4.904;2023-08-30T10:06:39;1.70;;;1.70;;
11839;SDS011;5979;50.800;4.904;2023-08-30T10:09:05;2.05;;;1.95;;
11839;SDS011;5979;50.800;4.904;2023-08-30T10:11:34;1.55;;;1.50;;
11839;SDS011;5979;50.800;4.904;2023-08-30T10:14:02;1.67;;;1.58;;
11839;SDS011;5979;50.800;4.904;2023-08-30T10:16:30;1.63;;;1.63;;
11839;SDS011;5979;50.800;4.904;2023-08-30T10:19:13;1.30;;;1.30;;
11839;SDS011;5979;50.800;4.904;2023-08-30T10:21:48;1.20;;;1.20;;
11839;SDS011;5979;50.800;4.904;2023-08-30T10:27:17;1.60;;;1.50;;
11839;SDS011;5979;50.800;4.904;2023-08-30T10:29:44;1.10;;;1.10;;
11839;SDS011;5979;50.800;4.904;2023-08-30T10:32:12;1.00;;;1.00;;
11839;SDS011;5979;50.800;4.904;2023-08-30T10:34:38;1.13;;;1.10;;
11839;SDS011;5979;50.800;4.904;2023-08-30T10:37:06;1.27;;;1.27;;
11839;SDS011;5979;50.800;4.904;2023-08-30T10:39:34;1.30;;;1.30;;
11839;SDS011;5979;50.800;4.904;2023-08-30T10:42:06;1.58;;;1.48;;
11839;SDS011;5979;50.800;4.904;2023-08-30T10:44:46;1.60;;;1.50;;
11839;SDS011;5979;50.800;4.904;2023-08-30T10:47:28;1.80;;;1.70;;
11839;SDS011;5979;50.800;4.904;2023-08-30T10:49:56;2.08;;;1.90;;
11839;SDS011;5979;50.800;4.904;2023-08-30T10:52:24;2.40;;;2.30;;
11839;SDS011;5979;50.800;4.904;2023-08-30T10:54:50;2.53;;;2.33;;
11839;SDS011;5979;50.800;4.904;2023-08-30T10:57:20;2.50;;;2.40;;
11839;SDS011;5979;50.800;4.904;2023-08-30T11:02:43;3.00;;;2.80;;
11839;SDS011;5979;50.800;4.904;2023-08-30T11:05:10;3.05;;;2.85;;
11839;SDS011;5979;50.800;4.904;2023-08-30T11:07:35;2.70;;;2.50;;
11839;SDS011;5979;50.800;4.904;2023-08-30T11:10:03;3.08;;;2.83;;
11839;SDS011;5979;50.800;4.904;2023-08-30T11:12:31;4.22;;;3.35;;
11839;SDS011;5979;50.800;4.904;2023-08-30T11:14:56;3.65;;;3.35;;
11839;SDS011;5979;50.800;4.904;2023-08-30T11:17:22;2.70;;;2.60;;
11839;SDS011;5979;50.800;4.904;2023-08-30T11:19:51;3.28;;;3.08;;
11839;SDS011;5979;50.800;4.904;2023-08-30T11:22:32;3.33;;;3.03;;
11839;SDS011;5979;50.800;4.904;2023-08-30T11:25:02;3.97;;;2.75;;
11839;SDS011;5979;50.800;4.904;2023-08-30T11:27:29;2.97;;;2.63;;
11839;SDS011;5979;50.800;4.904;2023-08-30T11:29:58;2.53;;;2.42;;
11839;SDS011;5979;50.800;4.904;2023-08-30T11:32:25;3.15;;;2.95;;
11839;SDS011;5979;50.800;4.904;2023-08-30T11:34:57;3.10;;;2.90;;
11839;SDS011;5979;50.800;4.904;2023-08-30T11:37:26;3.03;;;2.83;;
11839;SDS011;5979;50.800;4.904;2023-08-30T11:39:52;3.00;;;2.80;;
11839;SDS011;5979;50.800;4.904;2023-08-30T11:42:19;3.10;;;2.90;;
11839;SDS011;5979;50.800;4.904;2023-08-30T11:44:46;3.65;;;3.35;;
11839;SDS011;5979;50.800;4.904;2023-08-30T11:47:17;2.97;;;2.78;;
11839;SDS011;5979;50.800;4.904;2023-08-30T11:49:50;2.90;;;2.75;;
11839;SDS011;5979;50.800;4.904;2023-08-30T11:52:18;3.28;;;3.08;;
11839;SDS011;5979;50.800;4.904;2023-08-30T11:54:46;3.97;;;3.50;;
11839;SDS011;5979;50.800;4.904;2023-08-30T11:57:13;4.13;;;3.83;;
11839;SDS011;5979;50.800;4.904;2023-08-30T11:59:39;3.55;;;3.35;;
11839;SDS011;5979;50.800;4.904;2023-08-30T12:02:05;4.28;;;3.97;;
11839;SDS011;5979;50.800;4.904;2023-08-30T12:04:32;4.25;;;3.95;;
11839;SDS011;5979;50.800;4.904;2023-08-30T12:06:58;4.68;;;4.28;;
11839;SDS011;5979;50.800;4.904;2023-08-30T12:09:29;4.80;;;4.45;;
11839;SDS011;5979;50.800;4.904;2023-08-30T12:12:04;4.43;;;4.03;;
11839;SDS011;5979;50.800;4.904;2023-08-30T12:14:36;4.68;;;4.28;;
11839;SDS011;5979;50.800;4.904;2023-08-30T12:17:03;5.53;;;3.70;;
11839;SDS011;5979;50.800;4.904;2023-08-30T12:19:29;5.13;;;4.57;;
11839;SDS011;5979;50.800;4.904;2023-08-30T12:21:56;5.00;;;4.53;;
11839;SDS011;5979;50.800;4.904;2023-08-30T12:24:28;4.60;;;4.30;;
11839;SDS011;5979;50.800;4.904;2023-08-30T12:26:53;5.55;;;5.05;;
11839;SDS011;5979;50.800;4.904;2023-08-30T12:29:19;5.30;;;4.72;;
11839;SDS011;5979;50.800;4.904;2023-08-30T12:31:45;4.80;;;4.13;;
11839;SDS011;5979;50.800;4.904;2023-08-30T12:34:11;4.72;;;4.32;;
11839;SDS011;5979;50.800;4.904;2023-08-30T12:36:36;5.50;;;4.68;;
11839;SDS011;5979;50.800;4.904;2023-08-30T12:39:02;4.55;;;4.13;;
11839;SDS011;5979;50.800;4.904;2023-08-30T12:41:29;4.65;;;4.25;;
11839;SDS011;5979;50.800;4.904;2023-08-30T12:43:55;4.80;;;4.40;;
11839;SDS011;5979;50.800;4.904;2023-08-30T12:46:20;5.10;;;4.50;;
11839;SDS011;5979;50.800;4.904;2023-08-30T12:48:46;5.22;;;4.68;;
11839;SDS011;5979;50.800;4.904;2023-08-30T12:51:12;6.53;;;4.75;;
11839;SDS011;5979;50.800;4.904;2023-08-30T12:53:38;5.20;;;4.70;;
11839;SDS011;5979;50.800;4.904;2023-08-30T12:56:04;7.53;;;4.95;;
11839;SDS011;5979;50.800;4.904;2023-08-30T12:58:29;5.10;;;4.55;;
11839;SDS011;5979;50.800;4.904;2023-08-30T13:00:55;4.50;;;4.20;;
11839;SDS011;5979;50.800;4.904;2023-08-30T13:03:21;5.80;;;4.00;;
11839;SDS011;5979;50.800;4.904;2023-08-30T13:05:46;7.47;;;4.72;;
11839;SDS011;5979;50.800;4.904;2023-08-30T13:08:12;4.55;;;4.15;;
11839;SDS011;5979;50.800;4.904;2023-08-30T13:10:38;4.18;;;3.40;;
11839;SDS011;5979;50.800;4.904;2023-08-30T13:13:03;4.55;;;2.92;;
11839;SDS011;5979;50.800;4.904;2023-08-30T13:15:29;6.85;;;3.08;;
11839;SDS011;5979;50.800;4.904;2023-08-30T13:17:55;5.90;;;3.17;;
11839;SDS011;5979;50.800;4.904;2023-08-30T13:20:21;6.53;;;2.60;;
11839;SDS011;5979;50.800;4.904;2023-08-30T13:22:46;4.82;;;2.42;;
11839;SDS011;5979;50.800;4.904;2023-08-30T13:25:12;3.00;;;2.38;;
11839;SDS011;5979;50.800;4.904;2023-08-30T13:27:38;7.07;;;2.72;;
11839;SDS011;5979;50.800;4.904;2023-08-30T13:30:03;5.35;;;2.75;;
11839;SDS011;5979;50.800;4.904;2023-08-30T13:32:30;7.47;;;2.88;;
11839;SDS011;5979;50.800;4.904;2023-08-30T13:34:56;8.00;;;2.88;;
11839;SDS011;5979;50.800;4.904;2023-08-30T13:37:21;5.18;;;2.47;;
11839;SDS011;5979;50.800;4.904;2023-08-30T13:39:48;4.15;;;2.50;;
11839;SDS011;5979;50.800;4.904;2023-08-30T13:42:14;4.65;;;2.53;;
11839;SDS011;5979;50.800;4.904;2023-08-30T13:44:40;5.28;;;2.88;;
11839;SDS011;5979;50.800;4.904;2023-08-30T13:47:07;3.47;;;2.10;;
11839;SDS011;5979;50.800;4.904;2023-08-30T13:49:33;4.30;;;2.15;;
11839;SDS011;5979;50.800;4.904;2023-08-30T13:52:00;3.60;;;1.90;;
11839;SDS011;5979;50.800;4.904;2023-08-30T13:54:25;4.28;;;2.60;;
11839;SDS011;5979;50.800;4.904;2023-08-30T13:56:53;3.72;;;2.28;;
11839;SDS011;5979;50.800;4.904;2023-08-30T13:59:21;5.40;;;2.28;;
11839;SDS011;5979;50.800;4.904;2023-08-30T14:01:47;4.90;;;2.47;;
11839;SDS011;5979;50.800;4.904;2023-08-30T14:04:13;7.30;;;2.60;;
11839;SDS011;5979;50.800;4.904;2023-08-30T14:06:39;3.33;;;2.20;;
11839;SDS011;5979;50.800;4.904;2023-08-30T14:09:05;2.95;;;2.30;;
11839;SDS011;5979;50.800;4.904;2023-08-30T14:11:33;5.55;;;2.55;;
11839;SDS011;5979;50.800;4.904;2023-08-30T14:14:01;4.22;;;2.13;;
11839;SDS011;5979;50.800;4.904;2023-08-30T14:16:27;5.60;;;2.10;;
11839;SDS011;5979;50.800;4.904;2023-08-30T14:18:53;2.70;;;2.10;;
11839;SDS011;5979;50.800;4.904;2023-08-30T14:21:18;3.60;;;2.25;;
11839;SDS011;5979;50.800;4.904;2023-08-30T14:23:44;3.08;;;2.00;;
11839;SDS011;5979;50.800;4.904;2023-08-30T14:26:10;3.42;;;2.15;;
11839;SDS011;5979;50.800;4.904;2023-08-30T14:28:38;3.35;;;2.38;;
11839;SDS011;5979;50.800;4.904;2023-08-30T14:31:08;3.35;;;2.05;;
11839;SDS011;5979;50.800;4.904;2023-08-30T14:33:35;2.63;;;2.17;;
11839;SDS011;5979;50.800;4.904;2023-08-30T14:36:01;4.80;;;1.80;;
11839;SDS011;5979;50.800;4.904;2023-08-30T14:38:27;5.88;;;1.95;;
11839;SDS011;5979;50.800;4.904;2023-08-30T14:41:00;4.75;;;1.85;;
11839;SDS011;5979;50.800;4.904;2023-08-30T14:43:26;8.57;;;1.73;;
11839;SDS011;5979;50.800;4.904;2023-08-30T14:45:59;6.20;;;2.00;;
11839;SDS011;5979;50.800;4.904;2023-08-30T14:48:28;1.65;;;1.55;;
11839;SDS011;5979;50.800;4.904;2023-08-30T14:50:56;3.55;;;1.95;;
11839;SDS011;5979;50.800;4.904;2023-08-30T14:53:22;3.20;;;1.75;;
11839;SDS011;5979;50.800;4.904;2023-08-30T14:55:48;2.13;;;1.85;;
11839;SDS011;5979;50.800;4.904;2023-08-30T14:58:14;2.70;;;1.55;;
11839;SDS011;5979;50.800;4.904;2023-08-30T15:00:40;3.13;;;1.85;;
11839;SDS011;5979;50.800;4.904;2023-08-30T15:03:05;3.35;;;1.80;;
11839;SDS011;5979;50.800;4.904;2023-08-30T15:05:31;4.95;;;1.90;;
11839;SDS011;5979;50.800;4.904;2023-08-30T15:07:57;2.53;;;1.67;;